Time;durP1;ratioP1;P1;durP2;ratioP2;P2;SDS_P1;SDS_P2;PMS_P1;PMS_P2;Temp;Humidity;BMP_temperature;BMP_pressure;BME280_temperature;BME280_humidity;BME280_pressure;Samples;Min_cycle;Max_cycle;Signal;HPM_P1;HPM_P2
2022/07/13 00:02:25;;;;;;;6.67;1.97;;;15.70;99.90;15.10;100262;;;;588397;239;24081;-80
2022/07/13 00:04:54;;;;;;;2.17;1.83;;;15.70;99.90;15.10;100260;;;;568582;249;24151;-81
2022/07/13 00:07:21;;;;;;;2.97;1.70;;;15.60;99.90;15.10;100256;;;;589242;241;24030;-82
2022/07/13 00:09:49;;;;;;;3.80;1.47;;;15.70;99.90;15.10;100254;;;;567906;249;24111;-79
2022/07/13 00:12:18;;;;;;;2.50;2.00;;;15.70;99.90;15.10;100259;;;;589016;241;24006;-80
2022/07/13 00:14:46;;;;;;;3.33;1.87;;;15.70;99.90;15.10;100259;;;;567677;248;24096;-81
2022/07/13 00:17:14;;;;;;;5.00;1.87;;;15.70;99.90;15.10;100263;;;;588885;241;24091;-82
2022/07/13 00:19:42;;;;;;;3.77;1.80;;;15.60;99.90;15.10;100265;;;;567649;250;24095;-81
2022/07/13 00:22:10;;;;;;;3.57;1.77;;;15.60;99.90;15.10;100264;;;;588625;241;24058;-82
2022/07/13 00:24:37;;;;;;;8.33;2.40;;;15.60;99.90;15.10;100256;;;;567308;250;24080;-82
2022/07/13 00:27:06;;;;;;;1.90;1.73;;;15.60;99.90;15.00;100263;;;;588065;241;24016;-82
2022/07/13 00:29:34;;;;;;;4.40;1.57;;;15.60;99.90;15.00;100254;;;;567388;250;24090;-83
2022/07/13 00:32:02;;;;;;;5.37;1.70;;;15.60;99.90;15.00;100251;;;;588627;241;26165;-82
2022/07/13 00:34:32;;;;;;;4.17;1.77;;;15.50;99.90;15.00;100259;;;;567424;250;24100;-78
2022/07/13 00:36:58;;;;;;;2.97;1.70;;;15.50;99.90;15.00;100254;;;;588452;241;24095;-82
2022/07/13 00:39:26;;;;;;;5.33;1.63;;;15.50;99.90;15.00;100241;;;;567266;250;24095;-81
2022/07/13 00:41:54;;;;;;;1.67;1.57;;;15.50;99.90;15.00;100253;;;;587419;241;24053;-82
2022/07/13 00:44:22;;;;;;;1.50;1.40;;;15.60;99.90;15.00;100247;;;;566946;250;24085;-81
2022/07/13 00:46:58;;;;;;;3.80;1.70;;;15.60;99.90;15.00;100234;;;;587998;241;24072;-79
2022/07/13 00:49:27;;;;;;;4.47;2.10;;;15.50;99.90;15.00;100242;;;;561497;250;35271;-79
2022/07/13 00:51:55;;;;;;;4.60;1.87;;;15.50;99.90;15.00;100243;;;;588253;241;24072;-80
2022/07/13 00:54:20;;;;;;;5.33;1.90;;;15.60;99.90;15.00;100237;;;;567011;250;24179;-80
2022/07/13 00:56:48;;;;;;;4.20;1.93;;;15.60;99.90;15.00;100234;;;;577768;245;24087;-80
2022/07/13 00:59:19;;;;;;;2.97;1.40;;;15.50;99.90;15.00;100220;;;;577728;245;24062;-81
2022/07/13 01:01:44;;;;;;;2.00;1.70;;;15.60;99.90;15.00;100227;;;;587864;241;24035;-81
2022/07/13 01:04:12;;;;;;;3.90;1.33;;;15.60;99.90;15.00;100235;;;;566907;250;24108;-81
2022/07/13 01:06:44;;;;;;;3.50;1.80;;;15.50;99.90;15.00;100228;;;;587856;241;24031;-79
2022/07/13 01:09:08;;;;;;;4.53;1.63;;;15.60;99.90;15.00;100228;;;;567233;248;24112;-78
2022/07/13 01:11:36;;;;;;;2.60;1.20;;;15.60;99.90;15.00;100229;;;;597117;240;24052;-78
2022/07/13 01:14:04;;;;;;;6.27;1.80;;;15.60;99.90;15.00;100226;;;;566990;248;24083;-80
2022/07/13 01:16:36;;;;;;;3.10;1.60;;;15.60;99.90;15.00;100219;;;;589425;240;24080;-79
2022/07/13 01:19:04;;;;;;;2.07;1.50;;;15.60;99.90;15.00;100225;;;;567833;249;24134;-78
2022/07/13 01:21:28;;;;;;;1.50;1.40;;;15.60;99.90;15.00;100222;;;;588161;241;24040;-78
2022/07/13 01:23:56;;;;;;;2.90;1.40;;;15.50;99.90;15.00;100224;;;;567368;250;24083;-80
2022/07/13 01:26:24;;;;;;;3.57;1.40;;;15.50;99.90;15.00;100218;;;;588557;241;24046;-78
2022/07/13 01:28:55;;;;;;;4.27;1.20;;;15.50;99.90;15.00;100225;;;;567199;250;24106;-78
2022/07/13 01:31:35;;;;;;;7.17;1.73;;;15.50;99.90;14.90;100222;;;;588595;241;24034;-79
2022/07/13 01:34:06;;;;;;;6.03;1.80;;;15.50;99.90;14.90;100218;;;;575234;249;24169;-78
2022/07/13 01:36:31;;;;;;;1.60;1.30;;;15.50;99.90;14.90;100219;;;;587932;241;24103;-80
2022/07/13 01:38:59;;;;;;;3.10;1.87;;;15.50;99.90;14.90;100221;;;;567053;250;24106;-79
2022/07/13 01:41:26;;;;;;;5.33;1.83;;;15.50;99.90;14.90;100226;;;;588077;241;24070;-77
2022/07/13 01:43:57;;;;;;;3.97;1.63;;;15.50;99.90;14.90;100219;;;;574095;244;24097;-81
2022/07/13 01:46:26;;;;;;;1.30;1.20;;;15.40;99.90;14.80;100228;;;;587686;241;24024;-79
2022/07/13 01:48:54;;;;;;;2.07;1.43;;;15.40;99.90;14.80;100225;;;;567001;250;24088;-82
2022/07/13 01:51:19;;;;;;;3.33;1.23;;;15.40;99.90;14.80;100216;;;;587625;241;24030;-80
2022/07/13 01:53:50;;;;;;;1.43;1.10;;;15.40;99.90;14.80;100222;;;;567166;249;24120;-78
2022/07/13 01:56:15;;;;;;;4.83;1.87;;;15.40;99.90;14.80;100218;;;;587621;241;24026;-80
2022/07/13 01:58:43;;;;;;;4.60;1.40;;;15.40;99.90;14.80;100218;;;;566740;250;24096;-79
2022/07/13 02:01:11;;;;;;;3.50;1.57;;;15.30;99.90;14.80;100212;;;;587981;241;24073;-80
2022/07/13 02:03:40;;;;;;;2.30;1.60;;;15.30;99.90;14.70;100209;;;;566751;250;24118;-79
2022/07/13 02:06:08;;;;;;;5.13;1.70;;;15.30;99.90;14.70;100215;;;;587967;241;24029;-81
2022/07/13 02:08:36;;;;;;;4.13;1.60;;;15.30;99.90;14.70;100206;;;;566804;250;24088;-80
2022/07/13 02:11:07;;;;;;;4.37;1.63;;;15.30;99.90;14.70;100208;;;;587824;241;24021;-82
2022/07/13 02:13:32;;;;;;;2.53;1.50;;;15.30;99.90;14.70;100205;;;;567233;250;24118;-79
2022/07/13 02:16:00;;;;;;;2.87;1.63;;;15.30;99.90;14.70;100203;;;;597064;240;24085;-78
2022/07/13 02:18:27;;;;;;;3.17;1.73;;;15.30;99.90;14.70;100217;;;;567164;249;24098;-81
2022/07/13 02:20:55;;;;;;;4.23;1.40;;;15.20;99.90;14.70;100205;;;;588294;241;24044;-77
2022/07/13 02:23:23;;;;;;;3.83;1.87;;;15.30;99.90;14.70;100197;;;;567176;250;24099;-77
2022/07/13 02:25:51;;;;;;;2.50;1.80;;;15.20;99.90;14.70;100199;;;;588627;239;24055;-77
2022/07/13 02:28:20;;;;;;;2.63;1.70;;;15.20;99.90;14.60;100193;;;;568458;249;24100;-77
2022/07/13 02:30:49;;;;;;;4.73;1.83;;;15.20;99.90;14.60;100187;;;;589329;241;24023;-78
2022/07/13 02:33:17;;;;;;;4.47;2.15;;;15.20;99.90;14.60;100185;;;;563043;249;35288;-77
2022/07/13 02:35:44;;;;;;;3.83;1.87;;;15.20;99.90;14.60;100182;;;;589020;241;24110;-79
2022/07/13 02:38:12;;;;;;;5.33;1.63;;;15.20;99.90;14.60;100188;;;;567723;250;24114;-79
2022/07/13 02:40:40;;;;;;;1.00;1.00;;;15.20;99.90;14.60;100185;;;;588967;241;24019;-78
2022/07/13 02:43:08;;;;;;;1.87;1.30;;;15.20;99.90;14.60;100192;;;;567786;250;24076;-82
2022/07/13 02:45:36;;;;;;;5.20;1.53;;;15.20;99.90;14.70;100183;;;;588064;241;24057;-81
2022/07/13 02:48:07;;;;;;;6.50;1.90;;;15.20;99.90;14.70;100186;;;;567162;250;24079;-81
2022/07/13 02:50:35;;;;;;;2.73;1.27;;;15.30;99.90;14.80;100185;;;;587670;241;24076;-81
2022/07/13 02:53:00;;;;;;;2.63;1.13;;;15.30;99.90;14.80;100184;;;;566914;250;24158;-80
2022/07/13 02:55:28;;;;;;;4.63;1.80;;;15.30;99.90;14.80;100178;;;;583424;241;36754;-81
2022/07/13 02:57:56;;;;;;;4.40;2.10;;;14.70;99.90;14.90;100187;;;;562072;250;45012;-81
2022/07/13 03:00:24;;;;;;;2.77;2.00;;;15.50;99.90;14.90;100182;;;;588255;241;24035;-81
2022/07/13 03:02:51;;;;;;;2.50;1.47;;;15.50;99.90;15.00;100177;;;;566806;250;24105;-80
2022/07/13 03:05:22;;;;;;;8.67;1.73;;;15.50;99.90;15.00;100174;;;;588033;241;24028;-79
2022/07/13 03:07:47;;;;;;;5.90;1.80;;;15.60;99.90;15.00;100166;;;;566962;249;24110;-81
2022/07/13 03:10:16;;;;;;;2.70;1.43;;;15.60;99.90;15.00;100168;;;;587870;241;24013;-82
2022/07/13 03:12:45;;;;;;;3.33;1.67;;;15.60;99.90;15.10;100175;;;;566825;250;24126;-82
2022/07/13 03:15:13;;;;;;;5.65;2.08;;;15.60;99.90;15.10;100172;;;;582670;241;34923;-79
2022/07/13 03:17:41;;;;;;;1.93;1.60;;;15.70;99.90;15.10;100179;;;;566850;250;24093;-81
2022/07/13 03:20:12;;;;;;;1.50;1.40;;;15.70;99.90;15.20;100176;;;;587735;241;24057;-81
2022/07/13 03:22:37;;;;;;;3.60;1.53;;;15.80;99.90;15.20;100177;;;;575310;248;24095;-82
2022/07/13 03:25:06;;;;;;;4.40;1.60;;;15.70;99.90;15.30;100172;;;;587965;241;24027;-83
2022/07/13 03:27:34;;;;;;;3.90;1.77;;;15.90;99.90;15.40;100177;;;;566749;250;24102;-79
2022/07/13 03:30:03;;;;;;;4.43;1.37;;;16.30;99.90;15.90;100176;;;;587964;241;24062;-79
2022/07/13 03:32:32;;;;;;;3.27;1.60;;;17.00;99.90;16.70;100174;;;;566692;249;24101;-79
2022/07/13 03:35:00;;;;;;;2.63;1.53;;;17.00;99.90;17.60;100181;;;;588057;241;24127;-79
2022/07/13 03:37:28;;;;;;;2.23;1.77;;;17.90;99.90;18.40;100178;;;;567115;248;24081;-83
2022/07/13 03:39:55;;;;;;;1.67;1.13;;;18.70;99.90;19.20;100178;;;;588944;240;24027;-82
2022/07/13 03:42:23;;;;;;;5.40;1.33;;;19.50;99.90;19.90;100176;;;;567746;249;24131;-80
2022/07/13 03:44:51;;;;;;;2.70;1.13;;;20.30;99.90;20.50;100170;;;;588608;241;24077;-82
2022/07/13 03:47:19;;;;;;;2.90;1.27;;;21.00;99.90;21.10;100171;;;;567318;250;24107;-81
2022/07/13 03:49:48;;;;;;;3.00;1.23;;;22.10;99.90;21.60;100172;;;;588349;241;23065;-80
2022/07/13 03:52:17;;;;;;;1.87;1.27;;;22.70;99.90;22.10;100180;;;;567360;250;24202;-78
2022/07/13 03:54:44;;;;;;;1.87;1.40;;;22.70;99.90;22.50;100180;;;;588396;241;24018;-81
2022/07/13 03:57:15;;;;;;;4.53;1.30;;;23.20;99.90;22.90;100181;;;;566941;248;24105;-81
2022/07/13 03:59:40;;;;;;;3.97;1.33;;;23.50;99.90;23.30;100181;;;;587895;241;24046;-83
2022/07/13 04:02:08;;;;;;;2.37;1.20;;;24.00;99.90;23.60;100176;;;;567001;250;24125;-81
2022/07/13 04:04:36;;;;;;;2.60;1.30;;;24.30;99.90;24.10;100175;;;;588250;241;24021;-82
2022/07/13 04:07:04;;;;;;;2.17;1.40;;;24.80;99.90;24.50;100189;;;;567021;249;23144;-82
2022/07/13 04:09:32;;;;;;;3.97;1.40;;;25.20;99.90;24.90;100188;;;;588291;241;23028;-81
2022/07/13 04:12:01;;;;;;;6.27;1.23;;;26.20;99.90;25.40;100187;;;;567034;250;23117;-78
2022/07/13 04:14:29;;;;;;;2.10;1.10;;;26.70;99.90;25.90;100194;;;;587923;241;23033;-79
2022/07/13 04:16:58;;;;;;;2.83;1.50;;;27.30;99.90;26.60;100195;;;;566808;250;23102;-78
2022/07/13 04:19:26;;;;;;;2.10;1.30;;;27.20;99.90;27.00;100207;;;;587861;241;23033;-78
2022/07/13 04:21:54;;;;;;;2.17;1.00;;;27.70;99.90;27.20;100202;;;;566902;249;23150;-78
2022/07/13 04:24:23;;;;;;;2.40;1.40;;;28.50;99.90;27.60;100210;;;;587928;241;23132;-77
2022/07/13 04:26:50;;;;;;;1.67;1.25;;;28.40;99.90;28.10;100212;;;;567122;250;24137;-79
2022/07/13 04:29:18;;;;;;;3.17;1.42;;;28.90;97.90;28.80;100216;;;;587925;241;23033;-78
2022/07/13 04:31:46;;;;;;;1.35;1.08;;;29.60;96.20;29.40;100211;;;;566716;250;23114;-78
2022/07/13 04:34:14;;;;;;;3.80;1.60;;;30.30;93.20;29.70;100212;;;;587984;241;24051;-79
2022/07/13 04:36:42;;;;;;;1.65;1.10;;;30.70;91.60;29.80;100210;;;;566762;250;23115;-78
2022/07/13 04:39:10;;;;;;;3.17;1.42;;;30.70;89.40;28.80;100213;;;;581461;241;35076;-78
2022/07/13 04:41:38;;;;;;;2.87;1.60;;;30.00;89.30;27.40;100205;;;;587924;241;23052;-77
2022/07/13 04:44:07;;;;;;;3.80;1.42;;;27.60;92.90;26.30;100208;;;;566692;250;23109;-77
2022/07/13 04:46:35;;;;;;;3.53;1.50;;;26.70;94.70;25.70;100211;;;;587978;241;23083;-85
2022/07/13 04:49:03;;;;;;;2.30;1.10;;;26.70;94.70;25.10;100218;;;;566978;248;24115;-80
2022/07/13 04:51:31;;;;;;;4.17;1.63;;;26.00;96.40;24.40;100217;;;;589461;240;23047;-79
2022/07/13 04:53:59;;;;;;;2.77;1.30;;;25.30;97.90;24.00;100217;;;;567685;249;23097;-80
2022/07/13 04:56:27;;;;;;;3.47;1.47;;;24.80;99.70;23.60;100213;;;;588781;241;23127;-79
2022/07/13 04:58:55;;;;;;;2.23;1.67;;;24.30;99.90;23.30;100214;;;;567380;250;24185;-78
2022/07/13 05:01:23;;;;;;;1.20;1.10;;;24.00;99.90;23.10;100211;;;;588347;241;24020;-79
2022/07/13 05:03:51;;;;;;;1.77;1.07;;;23.70;99.90;22.90;100221;;;;567356;250;24098;-79
2022/07/13 05:06:19;;;;;;;1.67;1.27;;;23.40;99.90;22.80;100223;;;;588419;241;24057;-78
2022/07/13 05:08:46;;;;;;;2.57;1.07;;;23.30;99.90;22.80;100223;;;;567160;250;24079;-81
2022/07/13 05:11:15;;;;;;;2.40;1.10;;;23.30;99.90;22.80;100235;;;;588138;241;24125;-80
2022/07/13 05:13:43;;;;;;;3.03;1.23;;;23.20;99.90;23.10;100225;;;;566935;250;24119;-80
2022/07/13 05:16:11;;;;;;;1.33;1.03;;;23.50;99.90;23.70;100233;;;;588206;241;24052;-79
2022/07/13 05:18:39;;;;;;;3.08;1.50;;;24.00;99.90;25.20;100234;;;;562057;248;35290;-80
2022/07/13 05:21:07;;;;;;;2.87;1.40;;;25.30;99.90;27.00;100249;;;;588277;241;24019;-79
2022/07/13 05:23:35;;;;;;;2.33;1.20;;;27.10;99.90;29.10;100253;;;;567048;250;23147;-81
2022/07/13 05:26:05;;;;;;;1.62;1.10;;;29.20;97.00;30.80;100251;;;;588519;241;23033;-82
2022/07/13 05:28:31;;;;;;;3.33;1.00;;;31.00;92.20;32.00;100246;;;;566601;250;24118;-78
2022/07/13 05:30:59;;;;;;;1.73;1.08;;;33.50;77.70;32.90;100248;;;;586981;241;23063;-82
2022/07/13 05:33:28;;;;;;;3.60;1.48;;;34.00;73.70;33.50;100252;;;;566886;250;23142;-83
2022/07/13 05:35:57;;;;;;;2.50;1.15;;;35.10;68.00;34.60;100255;;;;587861;241;24031;-83
2022/07/13 05:38:24;;;;;;;3.40;1.10;;;35.00;67.80;35.70;100248;;;;561970;250;35354;-83
2022/07/13 05:40:52;;;;;;;1.00;1.00;;;36.10;63.20;36.40;100256;;;;587911;241;23029;-83
2022/07/13 05:43:21;;;;;;;1.42;1.25;;;36.90;60.40;37.30;100251;;;;566719;249;23130;-82
2022/07/13 05:45:52;;;;;;;2.20;1.10;;;37.80;58.00;38.10;100256;;;;587875;241;24074;-84
2022/07/13 05:48:16;;;;;;;2.00;0.80;;;38.60;55.60;38.50;100262;;;;566361;250;23134;-85
2022/07/13 05:50:44;;;;;;;1.73;0.98;;;39.10;52.30;38.70;100254;;;;587309;241;23044;-84
2022/07/13 05:53:13;;;;;;;4.05;0.90;;;39.40;51.20;39.00;100260;;;;566782;250;24131;-80
2022/07/13 05:55:40;;;;;;;1.33;1.20;;;39.60;51.10;39.80;100262;;;;583031;241;34846;-81
2022/07/13 05:58:08;;;;;;;2.30;0.68;;;40.20;49.30;40.60;100260;;;;567402;250;23096;-81
2022/07/13 06:00:36;;;;;;;2.15;1.40;;;41.10;48.80;41.30;100266;;;;588846;239;23057;-82
2022/07/13 06:03:04;;;;;;;1.75;1.10;;;41.80;47.50;41.50;100261;;;;568746;249;23092;-83
2022/07/13 06:05:32;;;;;;;2.03;1.10;;;42.00;45.50;42.00;100261;;;;589647;241;23034;-85
2022/07/13 06:08:00;;;;;;;7.25;1.00;;;42.40;45.20;42.00;100261;;;;567970;249;23103;-81
2022/07/13 06:10:31;;;;;;;2.45;1.17;;;42.90;43.90;42.50;100264;;;;589047;241;23152;-80
2022/07/13 06:12:57;;;;;;;1.87;1.20;;;43.10;44.00;42.60;100261;;;;567854;249;23162;-80
2022/07/13 06:15:25;;;;;;;1.00;1.00;;;43.40;43.10;43.00;100260;;;;598161;240;23030;-79
2022/07/13 06:17:53;;;;;;;4.03;1.30;;;43.40;43.10;43.40;100258;;;;567645;249;23082;-79
2022/07/13 06:20:21;;;;;;;8.68;1.87;;;43.80;42.80;43.90;100255;;;;588628;241;24088;-79
2022/07/13 06:23:09;;;;;;;18.15;1.98;;;44.30;42.00;44.50;100265;;;;567400;250;23089;-79
2022/07/13 06:25:17;;;;;;;3.35;0.98;;;44.80;41.40;44.70;100269;;;;587081;241;23076;-80
2022/07/13 06:27:45;;;;;;;5.85;1.12;;;45.00;40.40;44.90;100276;;;;567377;248;23122;-80
2022/07/13 06:30:13;;;;;;;6.60;1.30;;;45.30;40.30;45.50;100281;;;;588552;241;23054;-82
2022/07/13 06:32:41;;;;;;;4.93;1.30;;;45.70;40.10;45.60;100279;;;;567449;248;23101;-80
2022/07/13 06:35:09;;;;;;;1.05;0.80;;;46.00;38.60;45.90;100276;;;;588548;241;23072;-80
2022/07/13 06:37:37;;;;;;;4.45;1.00;;;46.20;38.30;46.50;100292;;;;567260;250;23134;-81
2022/07/13 06:40:06;;;;;;;4.62;1.30;;;47.30;37.80;47.20;100301;;;;588436;241;24074;-80
2022/07/13 06:42:33;;;;;;;4.53;1.00;;;47.30;37.80;47.50;100297;;;;575729;249;23123;-80
2022/07/13 06:45:01;;;;;;;4.62;1.15;;;47.80;37.10;47.50;100302;;;;588284;241;23068;-81
2022/07/13 06:47:30;;;;;;;1.52;0.98;;;47.90;36.50;47.50;100305;;;;567128;250;24133;-80
2022/07/13 06:49:59;;;;;;;9.57;3.55;;;48.10;36.30;47.80;100302;;;;588310;241;24083;-80
2022/07/13 06:52:30;;;;;;;9.02;1.87;;;48.00;36.20;47.90;100306;;;;566796;249;25276;-80
2022/07/13 06:54:55;;;;;;;0.90;0.90;;;48.20;35.50;47.10;100311;;;;587565;241;23049;-80
2022/07/13 06:57:22;;;;;;;2.45;0.90;;;47.70;35.50;47.20;100325;;;;567179;249;23125;-80
2022/07/13 06:59:50;;;;;;;0.88;0.80;;;47.50;36.00;46.80;100322;;;;587869;241;24073;-81
2022/07/13 07:02:18;;;;;;;8.77;2.12;;;47.20;35.90;46.70;100318;;;;561869;250;46070;-80
2022/07/13 07:04:46;;;;;;;6.70;2.17;;;47.00;36.50;46.90;100323;;;;587875;241;23040;-81
2022/07/13 07:07:15;;;;;;;5.12;3.03;;;47.40;37.00;47.30;100311;;;;566844;250;23090;-84
2022/07/13 07:09:43;;;;;;;9.15;2.85;;;47.30;36.90;47.90;100330;;;;587943;241;23048;-84
2022/07/13 07:12:11;;;;;;;3.78;1.52;;;47.90;36.90;47.80;100318;;;;566884;248;23110;-82
2022/07/13 07:14:39;;;;;;;5.87;3.60;;;47.90;36.10;47.50;100322;;;;589366;240;23042;-82
2022/07/13 07:17:10;;;;;;;7.20;2.60;;;47.70;36.70;47.30;100322;;;;567691;249;24123;-84
2022/07/13 07:19:34;;;;;;;3.25;1.40;;;47.60;36.60;47.30;100315;;;;587763;241;23043;-84
2022/07/13 07:22:02;;;;;;;1.87;0.98;;;47.40;37.00;47.50;100320;;;;567389;250;23121;-82
2022/07/13 07:24:31;;;;;;;2.35;0.90;;;47.80;36.80;47.70;100311;;;;588631;241;23030;-83
2022/07/13 07:27:03;;;;;;;0.93;0.85;;;47.80;36.80;47.90;100318;;;;567344;249;24195;-81
2022/07/13 07:29:27;;;;;;;3.55;1.00;;;48.10;35.80;48.00;100314;;;;587612;241;24090;-83
2022/07/13 07:31:56;;;;;;;3.42;1.10;;;48.10;36.00;47.90;100317;;;;567097;250;23134;-83
2022/07/13 07:34:24;;;;;;;3.55;1.00;;;48.00;35.90;48.00;100318;;;;588131;241;23060;-83
2022/07/13 07:36:51;;;;;;;1.85;1.00;;;48.10;36.20;47.90;100315;;;;567120;250;23100;-82
2022/07/13 07:39:19;;;;;;;3.05;1.00;;;48.00;35.80;47.70;100321;;;;588158;241;23031;-81
2022/07/13 07:41:47;;;;;;;5.85;1.20;;;47.80;35.80;47.40;100315;;;;567412;250;23094;-83
2022/07/13 07:44:15;;;;;;;1.30;0.80;;;47.60;35.50;47.80;100316;;;;588223;241;23022;-84
2022/07/13 07:46:43;;;;;;;2.80;0.80;;;47.70;35.10;48.20;100312;;;;566953;249;25321;-85
2022/07/13 07:49:11;;;;;;;0.80;0.80;;;48.00;35.00;48.70;100315;;;;588075;241;23052;-83
2022/07/13 07:51:42;;;;;;;6.20;1.20;;;48.50;34.30;48.80;100317;;;;566783;250;23137;-81
2022/07/13 07:54:07;;;;;;;2.95;1.00;;;48.80;33.70;47.70;100314;;;;587490;241;24096;-85
2022/07/13 07:56:35;;;;;;;6.85;1.10;;;48.20;34.30;47.70;100308;;;;566752;250;23099;-80
2022/07/13 07:59:03;;;;;;;2.20;1.00;;;47.90;34.70;46.90;100312;;;;588285;241;23022;-81
2022/07/13 08:01:31;;;;;;;5.78;0.90;;;47.40;34.80;45.10;100314;;;;567135;250;23097;-80
2022/07/13 08:03:58;;;;;;;2.40;1.00;;;46.00;36.40;43.80;100321;;;;588287;241;23111;-80
2022/07/13 08:06:26;;;;;;;6.03;0.80;;;44.70;37.50;42.70;100315;;;;567174;250;25200;-84
2022/07/13 08:08:54;;;;;;;1.77;1.00;;;43.50;38.50;41.80;100318;;;;588318;241;23022;-84
2022/07/13 08:11:22;;;;;;;3.00;0.70;;;42.50;40.10;40.80;100323;;;;567097;249;24125;-85
2022/07/13 08:13:51;;;;;;;0.98;0.80;;;41.40;41.30;39.90;100323;;;;588401;241;23030;-79
2022/07/13 08:16:18;;;;;;;0.88;0.73;;;40.40;42.40;38.80;100318;;;;567203;250;23093;-83
2022/07/13 08:18:49;;;;;;;2.17;0.85;;;39.40;43.10;38.10;100317;;;;587859;241;23041;-79
2022/07/13 08:21:15;;;;;;;7.68;1.37;;;38.60;44.00;37.20;100305;;;;566960;249;24138;-80
2022/07/13 08:23:52;;;;;;;8.60;1.40;;;37.70;44.80;36.40;100308;;;;588572;239;23037;-78
2022/07/13 08:26:23;;;;;;;1.67;0.80;;;36.80;46.10;35.50;100306;;;;568449;249;23127;-79
2022/07/13 08:28:57;;;;;;;0.95;0.75;;;35.90;47.20;34.90;100304;;;;588564;241;23127;-81
2022/07/13 08:31:22;;;;;;;1.05;0.65;;;35.20;48.60;34.10;100302;;;;567660;249;24166;-81
2022/07/13 08:39:22;;;;;;;2.90;0.80;;;33.00;52.40;32.00;100315;;;;588413;241;23040;-83
2022/07/13 08:41:50;;;;;;;2.10;0.80;;;32.40;53.50;31.40;100306;;;;567635;250;23133;-84
2022/07/13 08:44:18;;;;;;;2.17;0.75;;;31.90;54.80;30.90;100314;;;;588618;241;23056;-82
2022/07/13 08:46:46;;;;;;;5.70;1.02;;;30.80;56.90;30.30;100313;;;;567250;250;23123;-82
2022/07/13 08:49:18;;;;;;;2.60;0.70;;;30.20;58.00;29.70;100313;;;;597853;240;23037;-82
2022/07/13 08:51:46;;;;;;;0.73;0.73;;;29.70;59.60;29.20;100307;;;;567058;249;23123;-82
2022/07/13 08:54:12;;;;;;;1.92;0.98;;;29.60;59.50;28.80;100316;;;;588239;241;23051;-80
2022/07/13 08:56:42;;;;;;;0.73;0.70;;;29.20;60.50;28.40;100306;;;;567056;250;23166;-81
2022/07/13 08:59:10;;;;;;;2.50;0.83;;;28.80;62.90;28.30;100298;;;;588178;241;23056;-85
2022/07/13 09:01:38;;;;;;;2.73;0.70;;;28.60;63.00;28.10;100304;;;;567137;250;24120;-83
2022/07/13 09:04:10;;;;;;;1.80;0.70;;;28.40;62.70;27.60;100306;;;;588300;241;23069;-82
2022/07/13 09:06:40;;;;;;;0.80;0.80;;;28.10;63.40;27.40;100311;;;;574301;247;23124;-77
2022/07/13 09:09:11;;;;;;;1.70;0.93;;;27.80;64.20;27.00;100309;;;;588448;241;23041;-83
2022/07/13 09:11:36;;;;;;;0.80;0.60;;;27.50;65.50;26.80;100312;;;;566165;250;23105;-79
2022/07/13 09:14:04;;;;;;;1.17;0.77;;;27.20;67.10;26.60;100307;;;;588348;241;24012;-78
2022/07/13 09:16:32;;;;;;;3.40;0.80;;;27.00;68.00;26.60;100295;;;;567192;250;23104;-78
2022/07/13 09:19:00;;;;;;;1.33;0.90;;;26.90;68.80;26.40;100294;;;;588281;241;23077;-78
2022/07/13 09:21:27;;;;;;;8.70;1.10;;;26.80;69.30;26.30;100288;;;;567088;250;23105;-78
2022/07/13 09:23:55;;;;;;;2.13;1.03;;;26.70;70.20;26.10;100285;;;;587943;241;23058;-80
2022/07/13 09:26:26;;;;;;;1.70;1.00;;;26.50;71.10;25.90;100278;;;;574511;244;24087;-80
2022/07/13 09:28:51;;;;;;;4.77;0.80;;;26.30;71.70;25.70;100280;;;;588451;241;23044;-81
2022/07/13 09:31:22;;;;;;;5.17;1.10;;;26.10;72.60;25.60;100279;;;;567658;250;23157;-80
2022/07/13 09:33:51;;;;;;;1.80;0.67;;;26.00;73.50;25.50;100274;;;;588175;241;24020;-81
2022/07/13 09:36:18;;;;;;;1.70;1.00;;;25.90;73.70;25.40;100274;;;;567926;249;23104;-82
2022/07/13 09:38:46;;;;;;;2.50;0.90;;;25.80;73.50;25.20;100275;;;;588500;240;24024;-79
2022/07/13 09:41:19;;;;;;;3.10;1.37;;;25.60;74.20;25.10;100274;;;;568047;248;23164;-79
2022/07/13 09:47:01;;;;;;;2.97;0.87;;;25.50;75.10;25.20;100284;;;;567712;250;24145;-81
2022/07/13 09:49:43;;;;;;;2.63;1.03;;;25.50;75.00;25.40;100288;;;;588814;241;24012;-80
2022/07/13 09:52:19;;;;;;;1.03;0.80;;;25.70;75.00;25.60;100279;;;;567388;250;24097;-79
2022/07/13 09:54:51;;;;;;;2.30;0.97;;;25.90;74.90;26.20;100282;;;;578077;245;23078;-83
2022/07/13 09:57:18;;;;;;;3.30;1.10;;;26.40;74.30;27.80;100277;;;;577585;243;24134;-83
2022/07/13 09:59:46;;;;;;;1.80;1.07;;;27.80;72.50;29.50;100275;;;;577536;244;23090;-81
2022/07/13 10:02:14;;;;;;;1.20;1.20;;;29.60;68.40;30.50;100273;;;;588439;241;23099;-84
2022/07/13 10:04:42;;;;;;;1.45;1.00;;;30.80;64.50;31.20;100274;;;;567154;250;23106;-82
2022/07/13 10:07:10;;;;;;;3.22;0.98;;;31.60;62.70;31.70;100267;;;;588451;241;24109;-80
2022/07/13 10:09:38;;;;;;;3.37;1.15;;;32.20;59.80;32.00;100260;;;;567251;250;25192;-83
2022/07/13 10:12:10;;;;;;;1.40;1.27;;;32.50;59.10;32.40;100263;;;;588315;241;23045;-85
2022/07/13 10:14:36;;;;;;;1.35;1.08;;;32.90;57.90;32.80;100260;;;;576055;249;23102;-84
2022/07/13 10:17:11;;;;;;;1.87;0.93;;;33.60;56.10;33.00;100242;;;;588147;241;23052;-85
2022/07/13 10:20:14;;;;;;;7.75;1.40;;;33.80;56.20;33.30;100259;;;;574158;242;23122;-84
2022/07/13 10:22:40;;;;;;;3.78;1.25;;;33.70;56.10;33.90;100264;;;;578759;241;23045;-79
2022/07/13 10:25:11;;;;;;;1.00;1.00;;;34.30;55.50;34.00;100254;;;;566833;249;23144;-78
2022/07/13 10:27:37;;;;;;;1.40;1.30;;;34.50;53.90;33.90;100254;;;;587652;241;23125;-79
2022/07/13 10:30:14;;;;;;;2.15;1.02;;;34.40;53.80;34.00;100252;;;;566474;250;24173;-79
2022/07/13 10:32:39;;;;;;;1.50;1.40;;;34.30;54.10;33.70;100244;;;;587115;241;23099;-76
2022/07/13 10:35:16;;;;;;;1.62;1.50;;;34.30;54.00;33.80;100256;;;;576039;244;24141;-79
2022/07/13 10:37:56;;;;;;;1.42;1.00;;;34.30;54.70;34.30;100248;;;;587707;241;23138;-78
2022/07/13 10:40:28;;;;;;;1.62;0.95;;;34.70;53.60;34.00;100258;;;;566994;250;23121;-80
2022/07/13 10:42:57;;;;;;;1.30;1.27;;;34.60;53.40;33.70;100247;;;;587489;241;23065;-78
2022/07/13 10:45:33;;;;;;;2.03;1.33;;;34.10;54.10;33.60;100259;;;;567114;249;23125;-81
2022/07/13 10:48:04;;;;;;;11.23;2.03;;;34.10;54.10;33.30;100246;;;;589279;240;23032;-82
2022/07/13 10:50:34;;;;;;;7.15;1.70;;;33.90;54.70;33.10;100242;;;;567719;249;23152;-81
2022/07/13 10:52:59;;;;;;;3.50;1.33;;;33.60;55.00;32.70;100242;;;;588929;241;23041;-79
2022/07/13 10:55:31;;;;;;;3.20;1.50;;;33.20;55.80;32.50;100242;;;;567731;249;23110;-78
2022/07/13 10:58:00;;;;;;;1.15;1.12;;;32.90;56.80;32.30;100243;;;;588156;241;23045;-80
2022/07/13 11:00:41;;;;;;;3.70;1.27;;;32.70;58.10;31.90;100243;;;;567522;250;23150;-81
2022/07/13 11:03:06;;;;;;;1.75;1.27;;;32.30;57.70;31.40;100243;;;;578007;244;24067;-78
2022/07/13 11:05:35;;;;;;;2.22;1.45;;;31.80;58.40;31.00;100253;;;;577200;245;23080;-77
2022/07/13 11:08:14;;;;;;;7.22;1.48;;;31.40;59.50;30.50;100236;;;;588453;241;23096;-80
2022/07/13 11:10:45;;;;;;;5.30;1.60;;;31.00;60.60;30.10;100246;;;;567450;249;23136;-78
2022/07/13 11:13:13;;;;;;;3.25;1.60;;;30.60;62.00;29.70;100242;;;;577598;245;23065;-80
2022/07/13 11:15:56;;;;;;;1.73;1.58;;;30.50;62.10;29.10;100239;;;;562249;249;35334;-78
2022/07/13 11:18:25;;;;;;;11.15;1.95;;;29.20;64.20;28.70;100236;;;;567724;249;23149;-78
2022/07/13 11:21:29;;;;;;;1.43;1.33;;;29.20;64.20;28.50;100228;;;;576483;245;23122;-81
2022/07/13 11:26:57;;;;;;;1.63;1.40;;;28.80;65.80;28.50;100224;;;;586462;242;24055;-81
2022/07/13 11:29:27;;;;;;;2.23;1.70;;;28.80;66.50;28.60;100226;;;;557852;250;23151;-79